Time;durP1;ratioP1;P1;durP2;ratioP2;P2;SDS_P1;SDS_P2;PMS_P1;PMS_P2;Temp;Humidity;BMP_temperature;BMP_pressure;BME280_temperature;BME280_humidity;BME280_pressure;Samples;Min_cycle;Max_cycle;Signal;HPM_P1;HPM_P2
2023/05/10 00:00:12;;;;;;;3.63;2.03;;;16.00;84.60;;;;;;5051511;28;20086;-72
2023/05/10 00:02:38;;;;;;;4.30;2.30;;;15.90;84.60;;;;;;5050379;28;20025;-72
2023/05/10 00:05:04;;;;;;;6.72;2.72;;;16.00;84.70;;;;;;5051214;28;20434;-73
2023/05/10 00:07:30;;;;;;;3.70;2.88;;;16.00;84.60;;;;;;5032893;28;20053;-72
2023/05/10 00:09:56;;;;;;;3.33;2.40;;;16.00;84.50;;;;;;5033156;28;20052;-72
2023/05/10 00:12:21;;;;;;;5.15;2.78;;;16.00;84.50;;;;;;5032934;28;20386;-73
2023/05/10 00:14:47;;;;;;;5.72;2.83;;;16.10;84.50;;;;;;5017197;28;20536;-73
2023/05/10 00:17:13;;;;;;;5.55;3.25;;;16.00;84.50;;;;;;5050375;28;20514;-73
2023/05/10 00:19:38;;;;;;;5.82;2.85;;;16.00;84.50;;;;;;5049146;28;20385;-73
2023/05/10 00:22:04;;;;;;;4.72;2.90;;;16.00;84.60;;;;;;5050108;28;20033;-73
2023/05/10 00:24:30;;;;;;;4.55;2.97;;;16.00;84.50;;;;;;5050183;28;20033;-73
2023/05/10 00:26:55;;;;;;;8.23;3.40;;;16.00;84.50;;;;;;5030503;28;20029;-73
2023/05/10 00:29:21;;;;;;;6.38;2.67;;;16.00;84.50;;;;;;5015495;28;20029;-72
2023/05/10 00:31:47;;;;;;;5.50;3.30;;;16.00;84.60;;;;;;5029621;28;20484;-73
2023/05/10 00:34:12;;;;;;;3.70;2.90;;;16.00;84.60;;;;;;5033208;28;20029;-73
2023/05/10 00:36:38;;;;;;;6.25;3.45;;;16.00;84.60;;;;;;5050517;28;20494;-73
2023/05/10 00:39:04;;;;;;;5.50;3.53;;;16.00;84.50;;;;;;5032842;28;20148;-73
2023/05/10 00:41:33;;;;;;;7.03;4.35;;;16.00;84.50;;;;;;5013626;28;20029;-73
2023/05/10 00:43:58;;;;;;;4.53;3.10;;;16.00;84.60;;;;;;5032569;28;20025;-73
2023/05/10 00:46:25;;;;;;;7.47;3.97;;;15.90;84.70;;;;;;5021597;28;20021;-79
2023/05/10 00:48:52;;;;;;;10.40;5.10;;;15.90;84.80;;;;;;5034672;28;20094;-73
2023/05/10 00:51:18;;;;;;;8.00;4.47;;;15.90;84.90;;;;;;5015262;28;20048;-73
2023/05/10 00:53:45;;;;;;;8.13;4.38;;;15.90;85.00;;;;;;5035377;28;20441;-73
2023/05/10 00:56:12;;;;;;;10.18;5.97;;;15.80;85.00;;;;;;5045431;28;20021;-74
2023/05/10 00:58:38;;;;;;;6.72;4.28;;;15.90;85.00;;;;;;5031625;28;20036;-73
2023/05/10 01:01:05;;;;;;;8.32;5.25;;;15.90;84.90;;;;;;5057012;28;20032;-78
2023/05/10 01:03:32;;;;;;;8.32;4.22;;;15.90;85.00;;;;;;5055473;28;20487;-78
2023/05/10 01:05:58;;;;;;;9.48;4.30;;;15.90;84.90;;;;;;5037510;28;20022;-79
2023/05/10 01:08:24;;;;;;;8.35;4.47;;;15.90;84.90;;;;;;5055462;28;20040;-78
2023/05/10 01:10:50;;;;;;;9.93;5.28;;;16.00;84.90;;;;;;5039450;28;20431;-78
2023/05/10 01:13:33;;;;;;;6.90;4.38;;;16.00;84.80;;;;;;5052908;28;20025;-73
2023/05/10 01:16:01;;;;;;;7.43;4.70;;;16.00;84.80;;;;;;5031776;28;20036;-73
2023/05/10 01:18:29;;;;;;;8.15;4.38;;;16.00;84.80;;;;;;5052125;28;20025;-79
2023/05/10 01:21:16;;;;;;;8.07;5.05;;;16.00;84.80;;;;;;5057231;28;20503;-78
2023/05/10 01:24:00;;;;;;;11.25;5.35;;;16.00;84.80;;;;;;5053983;28;20068;-78
2023/05/10 01:26:26;;;;;;;9.07;5.43;;;16.00;84.80;;;;;;5038682;28;20483;-79
2023/05/10 01:29:32;;;;;;;11.93;7.05;;;16.00;85.50;;;;;;5056630;28;20072;-78
2023/05/10 01:32:15;;;;;;;10.15;6.95;;;16.00;84.90;;;;;;5018314;28;20033;-78
2023/05/10 01:34:54;;;;;;;9.55;5.43;;;16.00;85.10;;;;;;5056926;28;20502;-78
2023/05/10 01:37:45;;;;;;;15.75;8.60;;;16.00;85.10;;;;;;5054348;28;20029;-78
2023/05/10 01:40:30;;;;;;;13.05;6.13;;;16.00;85.00;;;;;;5036523;28;20453;-78
2023/05/10 01:43:02;;;;;;;12.00;6.82;;;15.90;85.20;;;;;;5052381;28;20104;-73
2023/05/10 01:46:10;;;;;;;12.50;6.45;;;15.80;85.40;;;;;;5031677;28;20419;-73
2023/05/10 01:48:47;;;;;;;16.58;8.25;;;15.80;85.30;;;;;;5043211;28;20150;-73
2023/05/10 01:51:16;;;;;;;10.20;5.60;;;15.80;85.40;;;;;;5027776;28;20041;-73
2023/05/10 01:53:44;;;;;;;12.82;6.80;;;15.90;85.50;;;;;;5021762;28;20116;-73
2023/05/10 01:56:12;;;;;;;14.98;6.97;;;15.90;85.50;;;;;;5036978;28;20028;-73
2023/05/10 01:58:44;;;;;;;9.50;6.53;;;15.90;85.40;;;;;;5013369;28;20041;-73
2023/05/10 02:01:10;;;;;;;16.33;7.40;;;15.90;85.50;;;;;;5033234;28;20053;-73
2023/05/10 02:03:38;;;;;;;14.15;7.00;;;15.90;85.40;;;;;;5014712;28;20532;-78
2023/05/10 02:06:05;;;;;;;13.23;6.70;;;15.90;85.40;;;;;;5016316;28;20013;-78
2023/05/10 02:08:32;;;;;;;10.68;5.22;;;15.90;85.50;;;;;;5016364;28;20507;-78
2023/05/10 02:10:59;;;;;;;10.95;5.40;;;15.90;85.50;;;;;;5015808;28;20088;-78
2023/05/10 02:13:27;;;;;;;9.77;5.63;;;15.90;85.40;;;;;;5033844;28;20503;-78
2023/05/10 02:15:54;;;;;;;9.30;5.75;;;15.90;85.40;;;;;;5035508;28;20358;-78
2023/05/10 02:18:22;;;;;;;9.27;5.93;;;15.90;85.50;;;;;;5033409;28;20072;-78
2023/05/10 02:20:48;;;;;;;10.23;6.38;;;16.00;85.50;;;;;;5016870;28;20025;-78
2023/05/10 02:23:15;;;;;;;13.18;6.97;;;16.00;85.50;;;;;;5037470;28;20025;-78
2023/05/10 02:25:42;;;;;;;11.77;6.18;;;16.00;85.40;;;;;;5016782;28;20378;-78
2023/05/10 02:28:10;;;;;;;10.45;6.68;;;16.00;85.40;;;;;;5016157;28;20029;-77
2023/05/10 02:30:36;;;;;;;11.00;6.60;;;16.00;85.30;;;;;;5016008;28;20029;-77
2023/05/10 02:33:04;;;;;;;8.70;4.85;;;16.00;85.40;;;;;;4999403;28;20033;-77
2023/05/10 02:35:33;;;;;;;8.85;5.13;;;16.00;85.40;;;;;;5033472;28;20057;-78
2023/05/10 02:38:00;;;;;;;8.93;5.72;;;16.00;85.30;;;;;;4999391;28;20026;-78
2023/05/10 02:40:27;;;;;;;11.10;5.18;;;16.00;85.30;;;;;;5015500;28;20029;-78
2023/05/10 02:42:56;;;;;;;9.70;5.13;;;16.00;85.40;;;;;;5015671;28;20048;-77
2023/05/10 02:45:26;;;;;;;10.20;5.18;;;16.00;85.40;;;;;;5033278;28;20017;-78
2023/05/10 02:47:52;;;;;;;12.13;6.18;;;16.00;85.40;;;;;;5033148;28;20108;-77
2023/05/10 02:50:18;;;;;;;10.43;5.95;;;16.00;85.40;;;;;;5033451;28;20037;-77
2023/05/10 02:52:53;;;;;;;16.60;8.35;;;16.00;85.40;;;;;;5037028;28;20064;-77
2023/05/10 02:55:22;;;;;;;14.23;8.10;;;15.90;85.40;;;;;;5015919;28;20098;-78
2023/05/10 02:57:58;;;;;;;15.18;8.52;;;15.90;85.70;;;;;;5033310;28;20024;-77
2023/05/10 03:00:25;;;;;;;16.65;8.73;;;15.90;85.80;;;;;;5037383;28;20017;-76
2023/05/10 03:02:50;;;;;;;12.77;7.00;;;15.80;85.90;;;;;;5016597;28;20022;-77
2023/05/10 03:05:16;;;;;;;13.98;7.55;;;15.80;86.10;;;;;;5035923;28;20055;-77
2023/05/10 03:07:43;;;;;;;11.50;6.22;;;15.80;86.00;;;;;;5015712;28;20030;-78
2023/05/10 03:10:09;;;;;;;9.93;7.07;;;15.80;86.00;;;;;;5033965;28;20022;-77
2023/05/10 03:13:11;;;;;;;12.73;5.80;;;15.80;86.00;;;;;;5015595;28;20033;-78
2023/05/10 03:16:04;;;;;;;13.38;8.13;;;15.80;86.00;;;;;;5022772;28;20030;-78
2023/05/10 03:18:42;;;;;;;13.20;6.28;;;15.80;85.90;;;;;;5033298;28;20056;-78
2023/05/10 03:21:12;;;;;;;14.95;8.38;;;15.80;85.80;;;;;;5033957;28;20026;-78
2023/05/10 03:23:42;;;;;;;18.27;7.57;;;15.80;85.80;;;;;;5034558;28;20022;-79
2023/05/10 03:26:09;;;;;;;14.45;7.80;;;15.80;85.80;;;;;;5018694;28;20071;-79
2023/05/10 03:28:36;;;;;;;19.27;10.88;;;15.70;86.00;;;;;;5039472;28;20060;-78
2023/05/10 03:31:04;;;;;;;19.15;10.63;;;15.70;86.20;;;;;;5019031;28;20075;-78
2023/05/10 03:33:29;;;;;;;22.90;11.30;;;15.60;86.30;;;;;;5039655;28;20025;-78
2023/05/10 03:35:55;;;;;;;20.80;10.32;;;15.60;86.40;;;;;;5037490;28;20075;-78
2023/05/10 03:38:21;;;;;;;20.75;8.50;;;15.60;86.60;;;;;;5038621;28;20485;-78
2023/05/10 03:40:46;;;;;;;15.90;8.07;;;15.50;86.60;;;;;;5015967;28;20033;-73
2023/05/10 03:43:12;;;;;;;17.08;6.80;;;15.60;86.60;;;;;;5031688;28;20025;-74
2023/05/10 03:45:37;;;;;;;17.38;8.45;;;15.60;86.50;;;;;;5032083;28;20057;-73
2023/05/10 03:48:03;;;;;;;14.10;9.05;;;15.60;86.30;;;;;;5028731;28;20021;-74
2023/05/10 03:50:29;;;;;;;17.80;7.53;;;15.60;86.30;;;;;;5016644;28;20383;-74
2023/05/10 03:52:55;;;;;;;19.52;9.60;;;15.60;86.30;;;;;;5018938;28;20055;-73
2023/05/10 03:55:22;;;;;;;15.57;8.32;;;15.60;86.40;;;;;;5041689;28;20373;-73
2023/05/10 03:57:49;;;;;;;13.88;8.05;;;15.50;86.40;;;;;;5025774;28;20029;-73
2023/05/10 04:00:15;;;;;;;14.65;8.95;;;15.50;86.40;;;;;;5035447;28;20031;-74
2023/05/10 04:02:41;;;;;;;20.90;10.00;;;15.50;86.40;;;;;;5036294;28;20025;-74
2023/05/10 04:05:07;;;;;;;19.00;9.98;;;15.50;86.30;;;;;;5039099;28;20033;-74
2023/05/10 04:07:33;;;;;;;18.75;8.77;;;15.50;86.40;;;;;;5035979;28;20026;-79
2023/05/10 04:09:58;;;;;;;22.63;10.35;;;15.40;86.30;;;;;;5007830;28;20499;-79
2023/05/10 04:12:24;;;;;;;18.45;9.07;;;15.40;86.40;;;;;;4998736;28;20038;-78
2023/05/10 04:14:50;;;;;;;20.05;9.82;;;15.40;86.40;;;;;;5019572;28;20060;-73
2023/05/10 04:17:16;;;;;;;19.80;10.40;;;15.40;86.50;;;;;;5038207;28;20098;-73
2023/05/10 04:19:42;;;;;;;19.80;9.07;;;15.30;86.40;;;;;;5021627;28;20037;-73
2023/05/10 04:22:08;;;;;;;17.65;8.65;;;15.30;86.50;;;;;;5036287;28;20408;-73
2023/05/10 04:24:34;;;;;;;17.85;9.13;;;15.30;86.50;;;;;;5017921;28;20408;-78
2023/05/10 04:27:00;;;;;;;17.30;8.30;;;15.30;86.40;;;;;;5034932;28;20013;-73
2023/05/10 04:29:26;;;;;;;13.13;7.93;;;15.20;86.40;;;;;;5035605;28;20026;-73
2023/05/10 04:31:53;;;;;;;14.57;7.68;;;15.30;86.40;;;;;;5031601;28;20028;-74
2023/05/10 04:34:20;;;;;;;11.00;7.40;;;15.30;86.40;;;;;;5034561;28;20084;-73
2023/05/10 04:36:46;;;;;;;12.55;5.88;;;15.30;86.20;;;;;;5034947;28;20040;-73
2023/05/10 04:39:12;;;;;;;12.38;6.50;;;15.30;86.20;;;;;;5012854;28;20037;-74
2023/05/10 04:41:38;;;;;;;15.65;7.68;;;15.40;86.20;;;;;;5014485;28;20041;-72
2023/05/10 04:44:04;;;;;;;15.80;7.97;;;15.40;86.00;;;;;;5030619;28;20068;-72
2023/05/10 04:46:29;;;;;;;12.93;7.72;;;15.40;86.00;;;;;;5034901;28;20129;-77
2023/05/10 04:48:55;;;;;;;12.10;7.22;;;15.30;85.90;;;;;;5035097;28;20034;-77
2023/05/10 04:51:21;;;;;;;21.15;9.60;;;15.30;86.00;;;;;;5025016;28;20430;-77
2023/05/10 04:53:46;;;;;;;17.55;8.27;;;15.20;86.70;;;;;;5055228;28;20558;-78
2023/05/10 04:56:12;;;;;;;14.77;8.52;;;15.20;86.30;;;;;;5054863;28;20037;-77
2023/05/10 04:58:38;;;;;;;10.52;6.35;;;15.20;86.40;;;;;;5054613;28;20029;-77
2023/05/10 05:01:08;;;;;;;12.85;6.70;;;15.20;86.40;;;;;;5036567;28;20031;-77
2023/05/10 05:03:33;;;;;;;13.95;6.93;;;15.20;86.40;;;;;;5051997;28;20017;-72
2023/05/10 05:05:59;;;;;;;12.38;6.43;;;15.30;86.40;;;;;;5053446;28;20036;-77
2023/05/10 05:08:25;;;;;;;15.30;6.90;;;15.30;86.30;;;;;;5055002;28;20025;-78
2023/05/10 05:10:51;;;;;;;16.10;7.28;;;15.30;86.30;;;;;;5036656;28;20044;-77
2023/05/10 05:13:16;;;;;;;13.43;6.82;;;15.40;86.20;;;;;;5054496;28;20603;-77
2023/05/10 05:15:42;;;;;;;11.73;6.80;;;15.40;86.10;;;;;;5020454;28;20029;-77
2023/05/10 05:18:07;;;;;;;10.98;5.88;;;15.40;86.00;;;;;;5054766;28;20029;-77
2023/05/10 05:20:34;;;;;;;9.23;5.68;;;15.40;86.00;;;;;;5050636;28;20044;-73
2023/05/10 05:23:00;;;;;;;17.15;6.82;;;15.50;85.90;;;;;;5032657;28;20064;-72
2023/05/10 05:25:25;;;;;;;15.98;8.02;;;15.50;85.70;;;;;;5052343;28;20049;-78
2023/05/10 05:27:51;;;;;;;15.77;7.65;;;15.50;85.70;;;;;;5055783;28;20447;-77
2023/05/10 05:30:17;;;;;;;13.20;6.70;;;15.50;85.70;;;;;;5053290;28;20024;-77
2023/05/10 05:32:42;;;;;;;13.73;6.43;;;15.50;85.70;;;;;;5054123;28;20025;-78
2023/05/10 05:35:08;;;;;;;12.63;6.97;;;15.50;85.70;;;;;;5053935;28;20109;-77
2023/05/10 05:37:35;;;;;;;13.07;6.22;;;15.50;85.70;;;;;;5036021;28;20052;-77
2023/05/10 05:40:01;;;;;;;11.43;5.75;;;15.50;85.80;;;;;;5053950;28;20013;-77
2023/05/10 05:42:27;;;;;;;13.63;6.65;;;15.50;85.70;;;;;;5053695;28;20036;-77
2023/05/10 05:44:53;;;;;;;12.55;7.38;;;15.60;85.60;;;;;;5054168;28;20025;-77
2023/05/10 05:47:18;;;;;;;15.02;7.03;;;15.60;85.60;;;;;;5036260;28;20120;-76
2023/05/10 05:49:47;;;;;;;14.15;6.65;;;15.60;85.60;;;;;;5054190;28;20033;-77
2023/05/10 05:52:13;;;;;;;12.15;6.85;;;15.60;85.60;;;;;;5054112;28;20478;-76
2023/05/10 05:54:39;;;;;;;10.07;5.78;;;15.70;85.70;;;;;;5051502;28;20027;-73
2023/05/10 05:57:05;;;;;;;17.75;7.30;;;15.80;85.60;;;;;;5048308;28;20032;-72
2023/05/10 05:59:31;;;;;;;11.70;5.93;;;15.80;85.50;;;;;;5048084;28;20024;-72
2023/05/10 06:01:56;;;;;;;12.77;7.70;;;15.80;85.30;;;;;;5048153;28;20036;-72
2023/05/10 06:04:22;;;;;;;17.02;5.50;;;15.90;85.40;;;;;;5031175;28;20456;-74
2023/05/10 06:06:48;;;;;;;12.13;6.95;;;15.90;85.30;;;;;;5029861;28;20108;-74
2023/05/10 06:09:14;;;;;;;11.38;6.32;;;16.00;85.30;;;;;;5047281;28;20104;-74
2023/05/10 06:11:40;;;;;;;14.27;6.97;;;16.00;85.10;;;;;;5048682;28;20071;-74
2023/05/10 06:14:07;;;;;;;14.48;6.63;;;16.00;85.00;;;;;;5030982;28;20123;-74
2023/05/10 06:16:34;;;;;;;16.10;8.25;;;16.00;84.90;;;;;;5031193;28;20025;-74
2023/05/10 06:18:59;;;;;;;15.13;6.85;;;16.00;84.90;;;;;;5048388;28;20537;-74
2023/05/10 06:21:25;;;;;;;16.30;7.32;;;16.00;85.10;;;;;;5026062;28;20029;-78
2023/05/10 06:23:51;;;;;;;9.00;5.00;;;15.90;85.20;;;;;;5019182;28;20037;-78
2023/05/10 06:26:16;;;;;;;12.65;6.72;;;15.90;85.20;;;;;;5052584;28;20090;-78
2023/05/10 06:28:42;;;;;;;18.27;6.60;;;15.90;85.10;;;;;;5053130;28;20032;-78
2023/05/10 06:31:08;;;;;;;11.35;6.55;;;15.90;85.20;;;;;;5035700;28;20102;-78
2023/05/10 06:33:34;;;;;;;18.42;8.52;;;15.80;85.20;;;;;;5053668;28;20025;-78
2023/05/10 06:36:00;;;;;;;12.80;6.20;;;15.80;85.20;;;;;;5033160;28;20479;-78
2023/05/10 06:38:25;;;;;;;17.35;8.05;;;15.80;85.30;;;;;;5023022;28;20037;-78
2023/05/10 06:40:51;;;;;;;18.23;7.43;;;15.70;85.30;;;;;;5052571;28;20082;-78
2023/05/10 06:43:17;;;;;;;16.02;6.30;;;15.70;85.50;;;;;;5034889;28;20033;-78
2023/05/10 06:45:43;;;;;;;10.25;6.00;;;15.70;85.50;;;;;;5051992;28;20067;-78
2023/05/10 06:48:09;;;;;;;15.65;7.63;;;15.80;85.50;;;;;;5044133;28;20037;-78
2023/05/10 06:50:34;;;;;;;17.20;7.85;;;15.80;85.40;;;;;;5034241;28;20064;-77
2023/05/10 06:53:01;;;;;;;12.48;7.30;;;15.70;85.50;;;;;;5048030;28;20025;-78
2023/05/10 06:55:28;;;;;;;18.63;8.45;;;15.60;85.60;;;;;;5033872;28;20041;-74
2023/05/10 06:57:53;;;;;;;14.20;7.38;;;15.60;85.80;;;;;;5048540;28;20048;-74
2023/05/10 07:00:20;;;;;;;13.07;6.82;;;15.60;85.80;;;;;;5050263;28;20025;-74
2023/05/10 07:02:46;;;;;;;17.92;8.15;;;15.60;85.90;;;;;;5053050;28;20029;-74
2023/05/10 07:05:12;;;;;;;13.90;7.50;;;15.50;85.90;;;;;;5030970;28;20082;-74
2023/05/10 07:07:38;;;;;;;11.38;6.93;;;15.50;86.00;;;;;;5054944;28;20108;-78
2023/05/10 07:10:04;;;;;;;12.70;7.57;;;15.60;86.10;;;;;;5043829;28;20484;-78
2023/05/10 07:12:31;;;;;;;11.38;6.22;;;15.60;85.90;;;;;;5035699;28;20045;-78
2023/05/10 07:14:56;;;;;;;11.40;6.80;;;15.70;85.90;;;;;;5056085;28;20025;-78
2023/05/10 07:17:22;;;;;;;9.30;5.47;;;15.70;85.70;;;;;;5053288;28;20032;-79
2023/05/10 07:19:48;;;;;;;13.63;7.30;;;15.70;85.60;;;;;;5037926;28;20056;-76
2023/05/10 07:22:15;;;;;;;18.40;7.32;;;15.80;85.50;;;;;;5055356;28;20025;-76
2023/05/10 07:24:40;;;;;;;13.63;6.10;;;15.80;85.30;;;;;;5055971;28;20426;-76
2023/05/10 07:27:06;;;;;;;12.35;5.65;;;15.80;85.30;;;;;;5055348;28;20013;-75
2023/05/10 07:29:32;;;;;;;10.35;6.85;;;15.90;85.30;;;;;;5025789;28;20037;-75
2023/05/10 07:31:58;;;;;;;16.95;7.13;;;15.90;85.10;;;;;;5014480;28;20032;-76
2023/05/10 07:34:23;;;;;;;12.38;6.32;;;15.90;85.10;;;;;;5053209;28;20059;-78
2023/05/10 07:36:49;;;;;;;13.70;7.43;;;16.00;85.20;;;;;;5015012;28;20056;-77
2023/05/10 07:39:15;;;;;;;9.63;6.35;;;16.00;85.10;;;;;;5049306;28;20031;-76
2023/05/10 07:41:41;;;;;;;14.73;7.20;;;16.10;85.00;;;;;;5035805;28;20396;-76
2023/05/10 07:44:06;;;;;;;13.73;6.53;;;16.10;85.00;;;;;;5052529;28;20037;-73
2023/05/10 07:46:32;;;;;;;12.35;6.90;;;16.10;85.00;;;;;;5052176;28;20032;-74
2023/05/10 07:48:58;;;;;;;14.10;5.88;;;16.10;84.90;;;;;;5052676;28;20108;-74
2023/05/10 07:51:24;;;;;;;11.98;6.40;;;16.20;85.00;;;;;;5044821;28;20068;-77
2023/05/10 07:53:50;;;;;;;10.95;6.20;;;16.20;84.90;;;;;;5031823;28;20038;-75
2023/05/10 07:56:25;;;;;;;13.15;6.00;;;16.30;84.80;;;;;;5007979;28;20026;-75
2023/05/10 07:58:51;;;;;;;17.08;7.80;;;16.30;84.70;;;;;;5027276;28;20033;-77
2023/05/10 08:01:16;;;;;;;16.05;8.50;;;16.40;84.40;;;;;;5027045;28;20025;-77
2023/05/10 08:03:42;;;;;;;12.23;7.35;;;16.40;84.20;;;;;;5029602;28;20029;-75
2023/05/10 08:06:08;;;;;;;15.73;7.88;;;16.30;84.30;;;;;;5013183;28;20056;-74
2023/05/10 08:08:33;;;;;;;14.30;5.35;;;16.40;84.50;;;;;;5031401;28;20040;-74
2023/05/10 08:10:59;;;;;;;9.60;6.50;;;16.40;84.50;;;;;;5029877;28;20396;-74
2023/05/10 08:13:25;;;;;;;15.57;7.63;;;16.40;84.20;;;;;;5031543;28;20108;-74
2023/05/10 08:15:52;;;;;;;13.30;6.72;;;16.40;84.00;;;;;;5031388;28;20037;-74
2023/05/10 08:18:19;;;;;;;13.02;5.82;;;16.40;84.20;;;;;;5030002;28;20585;-74
2023/05/10 08:20:44;;;;;;;12.57;5.90;;;16.50;84.10;;;;;;5029240;28;20105;-74
2023/05/10 08:23:12;;;;;;;16.67;8.05;;;16.60;83.90;;;;;;5028342;28;20033;-74
2023/05/10 08:25:37;;;;;;;12.25;5.63;;;16.70;83.80;;;;;;5030616;28;20029;-74
2023/05/10 08:28:03;;;;;;;10.15;5.93;;;16.80;83.50;;;;;;5029044;28;20038;-74
2023/05/10 08:30:29;;;;;;;12.32;5.25;;;16.90;83.20;;;;;;5011914;28;20392;-73
2023/05/10 08:32:54;;;;;;;8.80;4.93;;;16.90;83.20;;;;;;5013616;28;20131;-73
2023/05/10 08:35:20;;;;;;;24.85;6.00;;;17.00;83.00;;;;;;5028532;28;20028;-73
2023/05/10 08:37:46;;;;;;;12.85;5.38;;;17.00;82.70;;;;;;5028688;28;20026;-73
2023/05/10 08:40:12;;;;;;;12.68;6.65;;;17.00;82.60;;;;;;5028901;28;20163;-75
2023/05/10 08:42:40;;;;;;;11.82;4.82;;;17.10;82.40;;;;;;5027264;28;20055;-74
2023/05/10 08:45:08;;;;;;;9.32;4.85;;;17.10;82.50;;;;;;5030049;28;20018;-75
2023/05/10 08:47:37;;;;;;;12.75;6.38;;;17.00;82.40;;;;;;5030135;28;20354;-74
2023/05/10 08:50:03;;;;;;;13.80;6.00;;;16.90;82.30;;;;;;5024698;28;20392;-69
2023/05/10 08:52:32;;;;;;;14.20;5.70;;;16.80;82.40;;;;;;5029445;28;20057;-69
2023/05/10 08:54:58;;;;;;;11.05;5.68;;;16.70;82.50;;;;;;5041185;28;20032;-69
2023/05/10 08:57:24;;;;;;;9.32;4.18;;;16.60;82.60;;;;;;5047767;28;20036;-69
2023/05/10 08:59:50;;;;;;;6.97;4.43;;;16.60;82.80;;;;;;5032713;28;20033;-75
2023/05/10 09:02:18;;;;;;;6.95;4.32;;;16.60;82.70;;;;;;5049173;28;20056;-74
2023/05/10 09:04:44;;;;;;;7.50;4.03;;;16.60;82.70;;;;;;5050806;28;20018;-75
2023/05/10 09:07:10;;;;;;;5.75;2.92;;;16.60;82.50;;;;;;5050244;28;20031;-75
2023/05/10 09:09:37;;;;;;;9.77;4.00;;;16.60;82.50;;;;;;5033057;28;20036;-75
2023/05/10 09:12:02;;;;;;;9.02;4.22;;;16.60;82.30;;;;;;5050635;28;20029;-73
2023/05/10 09:14:30;;;;;;;8.48;4.38;;;16.70;82.30;;;;;;5050349;28;20440;-75
2023/05/10 09:16:56;;;;;;;7.05;4.05;;;16.70;82.10;;;;;;5016265;28;20025;-69
2023/05/10 09:19:22;;;;;;;6.47;4.75;;;16.70;82.00;;;;;;5050132;28;20039;-69
2023/05/10 09:21:49;;;;;;;9.10;4.68;;;16.70;82.00;;;;;;5048561;28;20037;-69
2023/05/10 09:24:14;;;;;;;11.45;4.05;;;16.70;81.90;;;;;;5030642;28;20436;-69
2023/05/10 09:26:48;;;;;;;6.80;3.72;;;16.90;82.10;;;;;;5031308;28;20083;-69
2023/05/10 09:29:14;;;;;;;8.25;3.83;;;17.10;81.70;;;;;;5049277;28;20391;-69
2023/05/10 09:31:55;;;;;;;5.88;2.92;;;17.20;80.70;;;;;;5050164;28;20032;-74
2023/05/10 09:34:29;;;;;;;6.97;3.08;;;17.30;80.10;;;;;;5049148;28;20028;-74
2023/05/10 09:37:04;;;;;;;6.03;3.05;;;17.40;80.00;;;;;;5050062;28;20025;-74
2023/05/10 09:39:34;;;;;;;4.75;2.70;;;17.40;79.90;;;;;;5050022;28;20033;-74
2023/05/10 09:42:09;;;;;;;5.18;2.85;;;17.50;80.00;;;;;;5049976;28;20079;-75
2023/05/10 09:44:35;;;;;;;2.63;1.63;;;17.50;79.30;;;;;;5049771;28;20048;-74
2023/05/10 09:47:02;;;;;;;4.85;2.53;;;17.40;79.30;;;;;;5044431;28;20025;-73
2023/05/10 09:49:28;;;;;;;3.90;2.40;;;17.30;79.30;;;;;;5048742;28;20040;-68
2023/05/10 09:52:04;;;;;;;3.85;2.08;;;17.30;79.40;;;;;;5048417;28;20053;-68
2023/05/10 09:54:30;;;;;;;3.67;2.25;;;17.40;79.40;;;;;;5044756;28;20094;-67
2023/05/10 09:56:56;;;;;;;2.25;1.67;;;17.40;78.70;;;;;;5047316;28;20044;-67
2023/05/10 09:59:26;;;;;;;4.32;2.63;;;17.40;78.10;;;;;;5031475;28;20110;-67
2023/05/10 10:01:52;;;;;;;2.67;1.92;;;17.40;78.10;;;;;;5049300;28;20032;-73
2023/05/10 10:04:19;;;;;;;3.42;1.85;;;17.40;78.40;;;;;;5030625;28;20520;-76
2023/05/10 10:06:45;;;;;;;4.82;2.05;;;17.40;78.10;;;;;;5049748;28;20024;-73
2023/05/10 10:09:11;;;;;;;3.92;2.58;;;17.40;77.60;;;;;;5031113;28;20404;-72
2023/05/10 10:11:38;;;;;;;4.22;2.42;;;17.30;77.70;;;;;;5046894;28;20025;-74
2023/05/10 10:14:04;;;;;;;4.65;2.30;;;17.30;77.20;;;;;;5030071;28;20044;-76
2023/05/10 10:16:31;;;;;;;4.78;2.17;;;17.30;77.20;;;;;;5049773;28;20031;-76
2023/05/10 10:18:57;;;;;;;3.22;1.90;;;17.40;77.40;;;;;;5048276;28;20074;-75
2023/05/10 10:21:23;;;;;;;4.43;1.85;;;17.50;77.30;;;;;;5043324;28;20133;-76
2023/05/10 10:23:50;;;;;;;4.20;2.08;;;17.50;76.90;;;;;;5048989;28;20518;-76
2023/05/10 10:26:17;;;;;;;3.83;2.28;;;17.50;76.90;;;;;;5049176;28;20075;-76
2023/05/10 10:28:52;;;;;;;2.97;1.92;;;17.40;76.70;;;;;;5043961;28;20430;-76
2023/05/10 10:31:27;;;;;;;5.18;2.42;;;17.30;76.70;;;;;;5047643;28;20153;-68
2023/05/10 10:34:09;;;;;;;2.97;1.95;;;17.30;77.10;;;;;;5047519;28;20055;-68
2023/05/10 10:36:45;;;;;;;4.07;2.10;;;17.30;77.20;;;;;;5035024;28;20071;-69
2023/05/10 10:39:12;;;;;;;2.78;1.60;;;17.30;77.30;;;;;;5049370;28;20461;-68
2023/05/10 10:41:44;;;;;;;5.18;2.30;;;17.40;77.30;;;;;;5048972;28;20473;-68
2023/05/10 10:44:24;;;;;;;4.78;2.03;;;17.30;77.00;;;;;;5048962;28;20021;-68
2023/05/10 10:47:05;;;;;;;4.32;2.65;;;17.40;76.90;;;;;;5039779;28;20021;-75
2023/05/10 10:50:01;;;;;;;4.30;2.40;;;17.40;76.80;;;;;;5045224;28;20044;-76
2023/05/10 10:52:35;;;;;;;3.45;2.22;;;17.40;76.50;;;;;;5031020;28;20048;-68
2023/05/10 10:55:14;;;;;;;4.22;2.08;;;17.30;76.30;;;;;;5049356;28;20033;-76
2023/05/10 10:57:40;;;;;;;4.93;2.40;;;17.50;76.40;;;;;;5024101;28;20033;-76
2023/05/10 11:00:24;;;;;;;3.30;1.90;;;17.70;76.10;;;;;;5043382;28;20569;-76
2023/05/10 11:03:00;;;;;;;3.53;2.08;;;17.90;75.70;;;;;;5035291;28;20534;-76
2023/05/10 11:05:36;;;;;;;5.20;2.28;;;18.00;74.80;;;;;;5022518;28;20032;-76
2023/05/10 11:08:07;;;;;;;2.65;2.00;;;18.00;74.50;;;;;;5040814;28;20423;-76
2023/05/10 11:10:33;;;;;;;2.87;1.83;;;17.90;74.50;;;;;;5042932;28;20017;-76
2023/05/10 11:13:07;;;;;;;4.47;1.98;;;17.90;74.70;;;;;;5028623;28;20491;-76
2023/05/10 11:15:37;;;;;;;4.80;2.95;;;17.90;74.50;;;;;;5045057;28;20029;-69
2023/05/10 11:18:29;;;;;;;6.28;3.20;;;17.80;74.70;;;;;;5041980;28;20021;-68
2023/05/10 11:21:06;;;;;;;10.60;3.38;;;17.90;74.70;;;;;;5028853;28;20027;-76
2023/05/10 11:23:39;;;;;;;5.47;2.78;;;17.80;74.30;;;;;;5047221;28;20075;-69
2023/05/10 11:26:10;;;;;;;5.70;2.63;;;17.80;74.70;;;;;;5030453;28;20116;-68
2023/05/10 11:28:45;;;;;;;4.38;2.47;;;17.90;74.50;;;;;;5046168;28;20052;-76
2023/05/10 11:31:14;;;;;;;3.70;2.33;;;18.10;74.50;;;;;;5047662;28;20492;-69
2023/05/10 11:33:50;;;;;;;2.60;2.03;;;18.20;74.20;;;;;;5046851;28;20021;-76
2023/05/10 11:36:21;;;;;;;4.25;2.25;;;18.30;74.00;;;;;;5046387;28;20119;-76
2023/05/10 11:38:47;;;;;;;4.15;2.17;;;18.40;73.90;;;;;;5045714;28;20455;-76
2023/05/10 11:41:15;;;;;;;3.55;1.90;;;18.50;73.80;;;;;;5030527;28;20380;-68
2023/05/10 11:43:41;;;;;;;5.38;2.83;;;18.60;73.50;;;;;;5045231;28;20055;-68
2023/05/10 11:46:10;;;;;;;1.70;1.60;;;18.70;73.40;;;;;;5048600;28;20040;-69
2023/05/10 11:48:36;;;;;;;4.97;2.40;;;18.80;73.30;;;;;;5030244;28;20030;-69
2023/05/10 11:51:02;;;;;;;2.00;1.80;;;18.80;73.10;;;;;;5046326;28;20037;-69
2023/05/10 11:53:32;;;;;;;4.40;2.15;;;18.70;72.90;;;;;;5031272;28;20027;-76
2023/05/10 11:56:06;;;;;;;2.53;1.77;;;18.70;72.70;;;;;;5028903;28;20024;-77
2023/05/10 11:58:32;;;;;;;3.70;2.20;;;18.60;73.00;;;;;;5037434;28;20037;-69
2023/05/10 12:01:02;;;;;;;4.15;1.70;;;18.60;72.90;;;;;;5029475;28;20151;-69
2023/05/10 12:03:28;;;;;;;3.58;2.13;;;18.70;72.80;;;;;;5049601;28;20488;-69
2023/05/10 12:05:58;;;;;;;5.35;2.00;;;18.70;72.20;;;;;;5028257;28;20504;-77
2023/05/10 12:08:26;;;;;;;3.00;1.80;;;18.70;72.20;;;;;;5034291;28;20178;-77
2023/05/10 12:10:54;;;;;;;1.58;0.95;;;18.60;72.20;;;;;;5040369;28;20387;-76
2023/05/10 12:13:20;;;;;;;3.60;1.98;;;18.70;72.40;;;;;;5052891;28;20032;-76
2023/05/10 12:15:46;;;;;;;3.33;2.00;;;18.70;72.30;;;;;;5052505;28;20179;-77
2023/05/10 12:18:13;;;;;;;1.95;1.65;;;18.80;72.20;;;;;;5052240;28;20566;-78
2023/05/10 12:20:40;;;;;;;1.70;1.33;;;18.80;72.20;;;;;;5052658;28;20151;-77
2023/05/10 12:23:08;;;;;;;4.18;1.40;;;18.80;72.10;;;;;;5052696;28;20029;-77
2023/05/10 12:25:35;;;;;;;3.17;1.52;;;18.90;72.30;;;;;;5033763;28;20502;-77
2023/05/10 12:28:04;;;;;;;2.63;1.70;;;18.90;72.40;;;;;;5030196;28;20045;-77
2023/05/10 12:30:32;;;;;;;2.35;1.23;;;19.10;72.40;;;;;;5051855;28;20017;-78
2023/05/10 12:33:10;;;;;;;2.53;1.48;;;19.30;72.10;;;;;;5034743;28;20039;-78
2023/05/10 12:35:51;;;;;;;3.25;1.63;;;19.50;71.70;;;;;;5049627;28;20749;-78
2023/05/10 12:38:25;;;;;;;1.77;1.23;;;19.80;71.40;;;;;;5051665;28;20100;-78
2023/05/10 12:40:50;;;;;;;2.75;1.67;;;20.00;71.20;;;;;;5052362;28;20036;-78
2023/05/10 12:43:16;;;;;;;2.78;2.08;;;20.10;70.20;;;;;;5051153;28;20029;-78
2023/05/10 12:45:42;;;;;;;2.40;1.58;;;20.10;69.70;;;;;;5032808;28;20108;-77